TJSJ

Luis Munoz Marin International Airport

San Juan, Puerto Rico, USA
TJSJ 151131Z 1512/1612 15004KT P6SM FEW030 FEW080 FM151300 09012KT P6SM SCT030 BKN050 FM151700 08015G20KT P6SM FEW035 SCT050 FM152200 10008KT P6SM VCSH SCT030 SCT060 FM160200 11003KT P6SM VCSH SCT025 SCT050
Issued Valid From Valid To
Nov-15 @ 11:31 UTC
(an hour ago)
Nov-15 @ 12:00 UTC
(42 minutes ago)
Nov-16 @ 12:00 UTC
(in 23 hours)
Nov-15 @ 12:00 to Nov-15 @ 13:00
TJSJ 151131Z 1512/1612 15004KT P6SM FEW030 FEW080
Wind Visibility Clouds
150° at 4 knots Greater than 6 miles
  • Few at 3,000' AGL
  • Few at 8,000' AGL
From Nov-15 @ 13:00 to Nov-15 @ 17:00
FM151300 09012KT P6SM SCT030 BKN050
Wind Visibility Clouds
90° at 12 knots Greater than 6 miles
  • Scattered at 3,000' AGL
  • Broken at 5,000' AGL
From Nov-15 @ 17:00 to Nov-15 @ 22:00
FM151700 08015G20KT P6SM FEW035 SCT050
Wind Visibility Clouds
80° at 15 knots
 Gusting to 20 knots
Greater than 6 miles
  • Few at 3,500' AGL
  • Scattered at 5,000' AGL
From Nov-15 @ 22:00 to Nov-16 @ 02:00
FM152200 10008KT P6SM VCSH SCT030 SCT060
Wind Visibility Clouds
100° at 8 knots Greater than 6 miles
  • Scattered at 3,000' AGL
  • Scattered at 6,000' AGL
From Nov-16 @ 02:00 to Nov-16 @ 12:00
FM160200 11003KT P6SM VCSH SCT025 SCT050
Wind Visibility Clouds
110° at 3 knots Greater than 6 miles
  • Scattered at 2,500' AGL
  • Scattered at 5,000' AGL
TJSJ 151131Z 1512/1612 15004KT P6SM FEW030 FEW080 FM151300 09012KT P6SM SCT030 BKN050 FM151700 08015G20KT P6SM FEW035 SCT050 FM152200 10008KT P6SM VCSH SCT030 SCT060 FM160200 11003KT P6SM VCSH SCT025 SCT050
Issued Nov-15 @ 11:31 UTC
(an hour ago)
Valid From Nov-15 @ 12:00 UTC
(42 minutes ago)
Valid To Nov-16 @ 12:00 UTC
(in 23 hours)
Nov-15 @ 12:00 - Nov-15 @ 13:00
Wind Visibility
150° at 4 knots Greater than 6 miles
Clouds
  • Few at 3,000' AGL
  • Few at 8,000' AGL
From Nov-15 @ 13:00 - Nov-15 @ 17:00
Wind Visibility
90° at 12 knots Greater than 6 miles
Clouds
  • Scattered at 3,000' AGL
  • Broken at 5,000' AGL
From Nov-15 @ 17:00 - Nov-15 @ 22:00
Wind Visibility
80° at 15 knots
 Gusting to 20 knots
Greater than 6 miles
Clouds
  • Few at 3,500' AGL
  • Scattered at 5,000' AGL
From Nov-15 @ 22:00 - Nov-16 @ 02:00
Wind Visibility
100° at 8 knots Greater than 6 miles
Clouds
  • Scattered at 3,000' AGL
  • Scattered at 6,000' AGL
From Nov-16 @ 02:00 - Nov-16 @ 12:00
Wind Visibility
110° at 3 knots Greater than 6 miles
Clouds
  • Scattered at 2,500' AGL
  • Scattered at 5,000' AGL